createdAt,value
2018-11-28T00:00:04.679Z,-5.10
2018-11-28T00:02:32.976Z,-5.10
2018-11-28T00:05:01.288Z,-5.10
2018-11-28T00:07:29.399Z,-5.10
2018-11-28T00:09:57.547Z,-5.10
2018-11-28T00:12:25.713Z,-5.10
2018-11-28T00:14:54.187Z,-5.10
2018-11-28T00:17:22.389Z,-5.20
2018-11-28T00:19:50.547Z,-5.20
2018-11-28T00:22:18.782Z,-5.20
2018-11-28T00:24:46.946Z,-5.20
2018-11-28T00:27:15.162Z,-5.20
2018-11-28T00:29:43.290Z,-5.20
2018-11-28T00:32:11.470Z,-5.10
2018-11-28T00:34:39.624Z,-5.20
2018-11-28T00:37:07.803Z,-5.20
2018-11-28T00:39:35.979Z,-5.20
2018-11-28T00:42:04.212Z,-5.20
2018-11-28T00:44:32.426Z,-5.10
2018-11-28T00:47:00.587Z,-5.20
2018-11-28T00:49:28.799Z,-5.20
2018-11-28T00:51:56.990Z,-5.20
2018-11-28T00:54:25.173Z,-5.10
2018-11-28T00:56:53.584Z,-5.00
2018-11-28T00:59:22.967Z,-5.10
2018-11-28T01:01:49.934Z,-5.20
2018-11-28T01:04:18.155Z,-5.30
2018-11-28T01:06:46.414Z,-5.20
2018-11-28T01:09:14.835Z,-5.30
2018-11-28T01:11:43.031Z,-5.30
2018-11-28T01:14:11.154Z,-5.30
2018-11-28T01:16:39.342Z,-5.30
2018-11-28T01:19:07.542Z,-5.30
2018-11-28T01:21:35.947Z,-5.30
2018-11-28T01:24:04.161Z,-5.40
2018-11-28T01:26:32.390Z,-5.40
2018-11-28T01:29:00.664Z,-5.40
2018-11-28T01:31:29.003Z,-5.40
2018-11-28T01:33:57.163Z,-5.40
2018-11-28T01:36:25.379Z,-5.30
2018-11-28T01:38:53.594Z,-5.40
2018-11-28T01:41:21.822Z,-5.50
2018-11-28T01:43:50.071Z,-5.50
2018-11-28T01:46:18.327Z,-5.50
2018-11-28T01:48:46.522Z,-5.40
2018-11-28T01:51:14.696Z,-5.50
2018-11-28T01:53:42.911Z,-5.60
2018-11-28T01:56:11.092Z,-5.60
2018-11-28T01:58:39.364Z,-5.60
2018-11-28T02:01:07.634Z,-5.60
2018-11-28T02:03:35.815Z,-5.60
2018-11-28T02:06:04.986Z,-5.70
2018-11-28T02:08:33.991Z,-5.70
2018-11-28T02:11:02.779Z,-5.70
2018-11-28T02:13:30.975Z,-5.70
2018-11-28T02:15:59.394Z,-5.70
2018-11-28T02:18:28.425Z,-5.70
2018-11-28T02:20:56.827Z,-5.70
2018-11-28T02:23:25.391Z,-5.70
2018-11-28T02:25:53.827Z,-5.80
2018-11-28T02:28:22.154Z,-5.80
2018-11-28T02:30:50.314Z,-5.90
2018-11-28T02:33:18.554Z,-5.80
2018-11-28T02:35:46.738Z,-5.80
2018-11-28T02:38:14.929Z,-5.90
2018-11-28T02:40:43.113Z,-5.80
2018-11-28T02:43:11.561Z,-5.90
2018-11-28T02:45:39.847Z,-5.80
2018-11-28T02:48:08.166Z,-5.80
2018-11-28T02:50:37.051Z,-5.90
2018-11-28T02:53:05.539Z,-5.90
2018-11-28T02:55:33.995Z,-5.90
2018-11-28T02:58:02.782Z,-5.90
2018-11-28T03:00:31.612Z,-5.90
2018-11-28T03:03:00.087Z,-5.90
2018-11-28T03:05:28.238Z,-5.90
2018-11-28T03:07:56.370Z,-6.00
2018-11-28T03:10:24.608Z,-6.00
2018-11-28T03:12:52.968Z,-6.00
2018-11-28T03:15:28.336Z,-6.00
2018-11-28T03:17:56.666Z,-6.00
2018-11-28T03:20:24.905Z,-6.00
2018-11-28T03:22:53.164Z,-6.10
2018-11-28T03:25:21.865Z,-6.10
2018-11-28T03:27:50.036Z,-6.00
2018-11-28T03:30:18.418Z,-5.90
2018-11-28T03:32:46.888Z,-6.00
2018-11-28T03:35:15.637Z,-6.10
2018-11-28T03:37:43.942Z,-6.10
2018-11-28T03:40:12.271Z,-6.10
2018-11-28T03:42:40.962Z,-6.20
2018-11-28T03:45:11.938Z,-6.20
2018-11-28T03:47:40.162Z,-6.20
2018-11-28T03:50:09.698Z,-6.20
2018-11-28T03:52:38.644Z,-6.20
2018-11-28T03:55:09.199Z,-6.20
2018-11-28T03:57:37.355Z,-6.20
2018-11-28T04:00:11.905Z,-6.20
2018-11-28T04:02:40.045Z,-6.20
2018-11-28T04:05:08.408Z,-6.20
2018-11-28T04:07:36.575Z,-6.20
2018-11-28T04:10:07.563Z,-6.20
2018-11-28T04:12:35.757Z,-6.10
2018-11-28T04:15:04.318Z,-6.10
2018-11-28T04:17:32.517Z,-6.20
2018-11-28T04:20:00.698Z,-6.20
2018-11-28T04:22:28.873Z,-6.10
2018-11-28T04:24:57.013Z,-6.00
2018-11-28T04:27:25.263Z,-6.10
2018-11-28T04:29:54.218Z,-6.20
2018-11-28T04:32:21.748Z,-6.20
2018-11-28T04:34:49.950Z,-6.20
2018-11-28T04:37:18.182Z,-6.20
2018-11-28T04:39:46.339Z,-6.20
2018-11-28T04:42:14.568Z,-6.20
2018-11-28T04:44:42.785Z,-6.30
2018-11-28T04:47:10.947Z,-6.30
2018-11-28T04:49:39.177Z,-6.30
2018-11-28T04:52:07.400Z,-6.40
2018-11-28T04:54:35.634Z,-6.30
2018-11-28T04:57:03.812Z,-6.30
2018-11-28T04:59:31.989Z,-6.40
2018-11-28T05:02:00.164Z,-6.40
2018-11-28T05:04:28.426Z,-6.40
2018-11-28T05:07:28.621Z,-6.50
2018-11-28T05:09:57.335Z,-6.40
2018-11-28T05:12:25.652Z,-6.40
2018-11-28T05:14:53.879Z,-6.40
2018-11-28T05:17:22.055Z,-6.30
2018-11-28T05:19:50.256Z,-6.40
2018-11-28T05:22:18.453Z,-6.40
2018-11-28T05:24:46.635Z,-6.40
2018-11-28T05:27:14.817Z,-6.40
2018-11-28T05:29:43.009Z,-6.40
2018-11-28T05:32:11.453Z,-6.40
2018-11-28T05:34:39.697Z,-6.40
2018-11-28T05:37:07.887Z,-6.50
2018-11-28T05:39:36.102Z,-6.50
2018-11-28T05:42:04.375Z,-6.40
2018-11-28T05:44:32.551Z,-6.40
2018-11-28T05:47:00.749Z,-6.40
2018-11-28T05:49:28.875Z,-6.40
2018-11-28T05:51:57.092Z,-6.40
2018-11-28T05:54:25.267Z,-6.40
2018-11-28T05:56:53.374Z,-6.40
2018-11-28T05:59:27.117Z,-6.50
2018-11-28T06:01:49.712Z,-6.50
2018-11-28T06:04:17.880Z,-6.50
2018-11-28T06:06:46.060Z,-6.50
2018-11-28T06:09:14.186Z,-6.50
2018-11-28T06:11:42.356Z,-6.50
2018-11-28T06:14:10.496Z,-6.50
2018-11-28T06:16:38.638Z,-6.50
2018-11-28T06:19:08.729Z,-6.50
2018-11-28T06:21:36.854Z,-6.50
2018-11-28T06:24:05.067Z,-6.50
2018-11-28T06:26:33.207Z,-6.40
2018-11-28T06:29:01.441Z,-6.40
2018-11-28T06:31:29.837Z,-6.50
2018-11-28T06:33:58.126Z,-6.40
2018-11-28T06:36:26.269Z,-6.30
2018-11-28T06:38:54.477Z,-6.30
2018-11-28T06:41:22.634Z,-6.30
2018-11-28T06:43:50.754Z,-6.40
2018-11-28T06:46:18.929Z,-6.40
2018-11-28T06:48:47.104Z,-6.40
2018-11-28T06:51:15.269Z,-6.30
2018-11-28T06:53:43.481Z,-6.40
2018-11-28T06:56:11.703Z,-6.40
2018-11-28T06:58:39.939Z,-6.40
2018-11-28T07:01:08.171Z,-6.30
2018-11-28T07:03:36.318Z,-6.30
2018-11-28T07:06:04.479Z,-6.30
2018-11-28T07:08:32.663Z,-6.30
2018-11-28T07:11:00.828Z,-6.30
2018-11-28T07:13:29.042Z,-6.20
2018-11-28T07:15:57.207Z,-6.30
2018-11-28T07:18:36.802Z,-6.20
2018-11-28T07:21:05.011Z,-6.30
2018-11-28T07:23:33.186Z,-6.20
2018-11-28T07:26:01.319Z,-6.20
2018-11-28T07:28:29.546Z,-6.10
2018-11-28T07:30:57.704Z,-6.10
2018-11-28T07:33:25.863Z,-6.10
2018-11-28T07:35:54.063Z,-6.00
2018-11-28T07:38:22.263Z,-5.90
2018-11-28T07:40:50.451Z,-5.90
2018-11-28T07:43:18.740Z,-5.90
2018-11-28T07:45:48.437Z,-5.80
2018-11-28T07:48:16.590Z,-5.70
2018-11-28T07:50:44.771Z,-5.60
2018-11-28T07:53:12.957Z,-5.50
2018-11-28T07:55:41.133Z,-5.50
2018-11-28T07:58:09.308Z,-5.40
2018-11-28T08:00:37.831Z,-5.30
2018-11-28T08:03:07.507Z,-5.30
2018-11-28T08:05:36.789Z,-5.20
2018-11-28T08:08:06.017Z,-5.10
2018-11-28T08:10:34.162Z,-5.10
2018-11-28T08:13:02.305Z,-5.00
2018-11-28T08:15:30.456Z,-4.90
2018-11-28T08:17:58.660Z,-4.80
2018-11-28T08:20:26.826Z,-4.70
2018-11-28T08:22:55.054Z,-4.60
2018-11-28T08:25:27.643Z,-4.40
2018-11-28T08:27:51.436Z,-4.30
2018-11-28T08:30:21.604Z,-4.10
2018-11-28T08:32:49.851Z,-3.90
2018-11-28T08:35:17.968Z,-3.60
2018-11-28T08:37:46.159Z,-3.30
2018-11-28T08:40:15.564Z,-2.90
2018-11-28T08:42:43.741Z,-2.50
2018-11-28T08:45:19.616Z,-2.20
2018-11-28T08:47:49.754Z,-2.20
2018-11-28T08:50:20.129Z,-2.30
2018-11-28T08:52:48.316Z,-2.20
2018-11-28T08:55:16.473Z,-2.10
2018-11-28T08:57:44.607Z,-1.90
2018-11-28T09:00:16.876Z,-1.90
2018-11-28T09:02:46.009Z,-1.90
2018-11-28T09:05:14.487Z,-1.70
2018-11-28T09:07:42.696Z,-1.40
2018-11-28T09:10:12.042Z,-1.00
2018-11-28T09:12:40.183Z,-0.80
2018-11-28T09:15:16.544Z,-0.50
2018-11-28T09:17:44.659Z,-0.30
2018-11-28T09:20:13.674Z,-0.10
2018-11-28T09:22:41.805Z,0.00
2018-11-28T09:25:13.204Z,0.30
2018-11-28T09:27:41.471Z,0.60
2018-11-28T09:30:11.154Z,1.30
2018-11-28T09:32:39.319Z,1.70
2018-11-28T09:35:08.657Z,2.10
2018-11-28T09:37:36.835Z,2.60
2018-11-28T09:40:12.353Z,2.30
2018-11-28T09:42:40.568Z,2.40
2018-11-28T09:45:10.599Z,2.60
2018-11-28T09:47:38.893Z,2.80
2018-11-28T09:50:12.410Z,3.60
2018-11-28T09:52:40.553Z,4.30
2018-11-28T09:55:11.115Z,4.40
2018-11-28T09:57:39.235Z,4.60
2018-11-28T10:00:15.162Z,4.10
2018-11-28T10:02:43.290Z,4.30
2018-11-28T10:05:15.701Z,4.40
2018-11-28T10:07:43.815Z,4.70
2018-11-28T10:10:12.771Z,4.70
2018-11-28T10:12:40.914Z,4.70
2018-11-28T10:15:12.015Z,4.70
2018-11-28T10:17:40.242Z,4.60
2018-11-28T10:20:09.738Z,4.70
2018-11-28T10:22:37.866Z,4.90
2018-11-28T10:25:06.814Z,4.70
2018-11-28T10:27:34.979Z,5.40
2018-11-28T10:30:03.095Z,5.20
2018-11-28T10:32:31.269Z,5.40
2018-11-28T10:34:59.402Z,5.00
2018-11-28T10:37:27.543Z,4.90
2018-11-28T10:39:55.692Z,5.30
2018-11-28T10:42:24.088Z,5.60
2018-11-28T10:44:52.056Z,5.30
2018-11-28T10:47:20.222Z,5.80
2018-11-28T10:49:48.347Z,6.10
2018-11-28T10:52:16.578Z,5.30
2018-11-28T10:54:44.723Z,5.10
2018-11-28T10:57:12.860Z,4.40
2018-11-28T10:59:41.061Z,4.00
2018-11-28T11:02:14.735Z,3.80
2018-11-28T11:04:48.346Z,3.80
2018-11-28T11:07:21.995Z,4.40
2018-11-28T11:09:55.587Z,4.40
2018-11-28T11:12:29.175Z,4.30
2018-11-28T11:14:57.315Z,4.50
2018-11-28T11:17:25.449Z,4.60
2018-11-28T11:19:53.566Z,4.20
2018-11-28T11:22:21.695Z,3.60
2018-11-28T11:24:49.884Z,3.40
2018-11-28T11:27:18.041Z,3.50
2018-11-28T11:29:46.201Z,3.30
2018-11-28T11:32:14.301Z,3.30
2018-11-28T11:34:42.448Z,3.40
2018-11-28T11:37:10.575Z,3.60
2018-11-28T11:39:38.739Z,3.80
2018-11-28T11:42:06.867Z,3.80
2018-11-28T11:44:34.988Z,3.60
2018-11-28T11:47:03.099Z,3.30
2018-11-28T11:49:31.198Z,3.00
2018-11-28T11:51:59.365Z,2.90
2018-11-28T11:54:27.519Z,2.70
2018-11-28T11:56:55.681Z,2.70
2018-11-28T11:59:23.871Z,2.80
2018-11-28T12:01:54.801Z,2.90
2018-11-28T12:04:20.136Z,3.00
2018-11-28T12:06:48.267Z,2.90
2018-11-28T12:09:16.367Z,2.80
2018-11-28T12:11:50.941Z,2.70
2018-11-28T12:14:19.070Z,2.60
2018-11-28T12:16:47.211Z,2.60
2018-11-28T12:19:15.376Z,2.60
2018-11-28T12:21:43.655Z,2.60
2018-11-28T12:24:11.675Z,2.50
2018-11-28T12:26:39.801Z,2.50
2018-11-28T12:29:07.936Z,2.50
2018-11-28T12:31:36.049Z,2.50
2018-11-28T12:34:04.226Z,2.50
2018-11-28T12:36:32.335Z,2.50
2018-11-28T12:39:00.461Z,2.60
2018-11-28T12:41:28.635Z,2.60
2018-11-28T12:43:56.776Z,2.60
2018-11-28T12:46:24.882Z,2.70
2018-11-28T12:48:52.970Z,3.00
2018-11-28T12:51:21.064Z,3.00
2018-11-28T12:53:49.212Z,3.00
2018-11-28T12:56:17.294Z,3.10
2018-11-28T12:58:45.396Z,3.20
2018-11-28T13:01:13.539Z,3.40
2018-11-28T13:03:41.638Z,3.60
2018-11-28T13:06:09.727Z,3.90
2018-11-28T13:08:39.307Z,4.10
2018-11-28T13:11:08.292Z,4.00
2018-11-28T13:13:36.543Z,3.90
2018-11-28T13:16:04.974Z,3.90
2018-11-28T13:18:33.105Z,3.80
2018-11-28T13:21:01.203Z,4.10
2018-11-28T13:23:29.373Z,4.30
2018-11-28T13:25:57.798Z,4.40
2018-11-28T13:28:25.898Z,4.40
2018-11-28T13:30:54.123Z,4.10
2018-11-28T13:33:22.295Z,3.60
2018-11-28T13:35:50.567Z,3.70
2018-11-28T13:40:47.191Z,3.50
2018-11-28T13:43:15.318Z,3.40
2018-11-28T13:45:46.291Z,3.10
2018-11-28T13:48:15.139Z,2.80
2018-11-28T13:50:43.267Z,2.60
2018-11-28T13:53:13.935Z,2.40
2018-11-28T13:56:30.039Z,2.30
2018-11-28T13:58:18.087Z,2.20
2018-11-28T14:00:46.252Z,2.10
2018-11-28T14:03:14.494Z,2.10
2018-11-28T14:05:42.629Z,2.00
2018-11-28T14:08:10.750Z,2.00
2018-11-28T14:10:38.933Z,2.00
2018-11-28T14:13:07.355Z,1.90
2018-11-28T14:15:35.535Z,1.70
2018-11-28T14:18:07.594Z,1.70
2018-11-28T14:20:35.797Z,1.70
2018-11-28T14:23:04.010Z,1.70
2018-11-28T14:25:32.316Z,1.60
2018-11-28T14:28:00.828Z,1.60
2018-11-28T14:30:29.227Z,1.60
2018-11-28T14:32:57.513Z,1.60
2018-11-28T14:35:26.413Z,1.60
2018-11-28T14:37:54.692Z,1.50
2018-11-28T14:40:24.547Z,1.50
2018-11-28T14:42:56.810Z,1.40
2018-11-28T14:45:25.605Z,1.40
2018-11-28T14:47:53.829Z,1.40
2018-11-28T14:50:24.236Z,1.30
2018-11-28T14:52:53.317Z,1.30
2018-11-28T14:55:24.736Z,1.30
2018-11-28T14:57:52.983Z,1.30
2018-11-28T15:00:25.603Z,1.20
2018-11-28T15:02:56.915Z,1.20
2018-11-28T15:05:35.216Z,1.10
2018-11-28T15:08:08.971Z,1.10
2018-11-28T15:10:45.193Z,1.00
2018-11-28T15:13:13.414Z,1.00
2018-11-28T15:15:41.882Z,0.90
2018-11-28T15:18:10.044Z,0.90
2018-11-28T15:20:38.298Z,0.90
2018-11-28T15:23:06.647Z,0.80
2018-11-28T15:25:34.863Z,0.80
2018-11-28T15:28:03.011Z,0.80
2018-11-28T15:30:31.181Z,0.70
2018-11-28T15:33:00.917Z,0.70
2018-11-28T15:35:31.048Z,0.60
2018-11-28T15:37:59.256Z,0.60
2018-11-28T15:40:27.685Z,0.50
2018-11-28T15:42:56.509Z,0.50
2018-11-28T15:45:24.730Z,0.40
2018-11-28T15:47:53.256Z,0.40
2018-11-28T15:50:21.615Z,0.40
2018-11-28T15:52:49.883Z,0.30
2018-11-28T15:55:18.163Z,0.30
2018-11-28T15:57:46.318Z,0.30
2018-11-28T16:00:24.547Z,0.30
2018-11-28T16:02:56.380Z,0.30
2018-11-28T16:05:27.378Z,0.30
2018-11-28T16:08:01.479Z,0.30
2018-11-28T16:10:44.890Z,0.30
2018-11-28T16:16:11.643Z,0.30
2018-11-28T16:18:44.027Z,0.30
2018-11-28T16:21:12.374Z,0.30
2018-11-28T16:23:40.829Z,0.30
2018-11-28T16:26:09.059Z,0.30
2018-11-28T16:28:37.406Z,0.20
2018-11-28T16:31:05.922Z,0.20
2018-11-28T16:33:40.535Z,0.20
2018-11-28T16:36:13.364Z,0.30
2018-11-28T16:38:57.053Z,0.30
2018-11-28T16:41:25.795Z,0.20
2018-11-28T16:43:54.275Z,0.20
2018-11-28T16:46:22.740Z,0.20
2018-11-28T16:48:52.224Z,0.10
2018-11-28T16:51:21.363Z,0.20
2018-11-28T16:53:52.522Z,0.10
2018-11-28T16:56:21.337Z,0.10
2018-11-28T17:01:56.250Z,0.10
2018-11-28T17:04:28.524Z,0.10
2018-11-28T17:07:01.147Z,0.10
2018-11-28T17:10:08.939Z,0.00
2018-11-28T17:13:02.669Z,0.00
2018-11-28T17:15:54.238Z,0.00
2018-11-28T17:18:24.421Z,0.00
2018-11-28T17:20:54.284Z,0.00
2018-11-28T17:23:24.144Z,-0.10
2018-11-28T17:25:54.227Z,0.00
2018-11-28T17:28:24.330Z,0.00
2018-11-28T17:30:53.152Z,0.00
2018-11-28T17:33:23.020Z,0.00
2018-11-28T17:35:53.413Z,0.00
2018-11-28T17:38:22.598Z,-0.10
2018-11-28T17:40:51.018Z,-0.10
2018-11-28T17:43:19.865Z,-0.10
2018-11-28T17:45:48.789Z,0.00
2018-11-28T17:48:18.065Z,-0.10
2018-11-28T17:51:06.281Z,0.00
2018-11-28T17:53:34.402Z,0.00
2018-11-28T17:56:09.215Z,0.00
2018-11-28T17:58:38.534Z,0.00
2018-11-28T18:01:27.393Z,-0.10
2018-11-28T18:03:56.054Z,-0.10
2018-11-28T18:06:24.169Z,0.00
2018-11-28T18:08:53.571Z,0.00
2018-11-28T18:11:21.749Z,0.10
2018-11-28T18:13:49.931Z,0.10
2018-11-28T18:16:18.064Z,0.10
2018-11-28T18:18:46.203Z,0.10
2018-11-28T18:21:14.326Z,0.10
2018-11-28T18:23:42.482Z,0.20
2018-11-28T18:26:12.411Z,0.20
2018-11-28T18:28:41.547Z,0.20
2018-11-28T18:31:09.645Z,0.20
2018-11-28T18:33:37.762Z,0.20
2018-11-28T18:36:06.278Z,0.30
2018-11-28T18:38:34.410Z,0.30
2018-11-28T18:41:02.629Z,0.30
2018-11-28T18:43:30.880Z,0.30
2018-11-28T18:45:59.422Z,0.30
2018-11-28T18:48:27.278Z,0.30
2018-11-28T18:50:55.434Z,0.30
2018-11-28T18:53:25.047Z,0.30
2018-11-28T18:55:53.440Z,0.30
2018-11-28T18:58:21.599Z,0.30
2018-11-28T19:03:24.390Z,0.30
2018-11-28T19:05:52.553Z,0.30
2018-11-28T19:08:20.744Z,0.30
2018-11-28T19:10:48.936Z,0.30
2018-11-28T19:13:18.266Z,0.30
2018-11-28T19:15:45.360Z,0.30
2018-11-28T19:18:13.528Z,0.30
2018-11-28T19:20:41.838Z,0.30
2018-11-28T19:23:10.437Z,0.30
2018-11-28T19:25:38.627Z,0.30
2018-11-28T19:28:06.978Z,0.30
2018-11-28T19:30:36.219Z,0.30
2018-11-28T19:33:05.153Z,0.30
2018-11-28T19:35:33.313Z,0.20
2018-11-28T19:38:01.555Z,0.20
2018-11-28T19:40:34.733Z,0.20
2018-11-28T19:43:02.960Z,0.20
2018-11-28T19:45:31.100Z,0.20
2018-11-28T19:47:59.400Z,0.30
2018-11-28T19:50:29.400Z,0.30
2018-11-28T19:52:57.637Z,0.20
2018-11-28T19:55:25.763Z,0.20
2018-11-28T19:57:53.904Z,0.20
2018-11-28T20:00:22.086Z,0.20
2018-11-28T20:02:50.245Z,0.20
2018-11-28T20:05:18.391Z,0.30
2018-11-28T20:07:49.432Z,0.30
2018-11-28T20:10:19.980Z,0.30
2018-11-28T20:12:48.222Z,0.30
2018-11-28T20:15:23.886Z,0.30
2018-11-28T20:17:52.082Z,0.30
2018-11-28T20:20:20.759Z,0.30
2018-11-28T20:22:48.977Z,0.30
2018-11-28T20:25:21.343Z,0.30
2018-11-28T20:27:51.539Z,0.30
2018-11-28T20:30:22.921Z,0.30
2018-11-28T20:32:51.154Z,0.40
2018-11-28T20:35:19.385Z,0.30
2018-11-28T20:37:47.603Z,0.20
2018-11-28T20:40:16.865Z,0.20
2018-11-28T20:42:50.196Z,0.20
2018-11-28T20:45:18.528Z,0.20
2018-11-28T20:47:46.688Z,0.20
2018-11-28T20:50:25.557Z,0.20
2018-11-28T20:52:56.717Z,0.20
2018-11-28T20:55:24.874Z,0.20
2018-11-28T20:57:53.086Z,0.20
2018-11-28T21:00:22.717Z,0.20
2018-11-28T21:02:50.914Z,0.20
2018-11-28T21:05:19.108Z,0.10
2018-11-28T21:07:47.263Z,0.10
2018-11-28T21:10:21.789Z,0.10
2018-11-28T21:12:50.169Z,0.10
2018-11-28T21:15:18.371Z,0.10
2018-11-28T21:17:46.838Z,0.00
2018-11-28T21:20:17.929Z,0.00
2018-11-28T21:23:19.058Z,0.10
2018-11-28T21:25:47.775Z,0.00
2018-11-28T21:28:15.920Z,0.00
2018-11-28T21:30:44.130Z,0.00
2018-11-28T21:33:13.368Z,0.00
2018-11-28T21:35:43.543Z,0.00
2018-11-28T21:38:12.111Z,0.00
2018-11-28T21:40:40.238Z,-0.10
2018-11-28T21:43:08.389Z,-0.10
2018-11-28T21:45:36.566Z,-0.10
2018-11-28T21:48:04.694Z,-0.10
2018-11-28T21:50:33.043Z,-0.20
2018-11-28T21:53:01.271Z,-0.10
2018-11-28T21:55:29.470Z,-0.20
2018-11-28T21:57:57.639Z,-0.20
2018-11-28T22:00:26.844Z,-0.20
2018-11-28T22:02:55.137Z,-0.20
2018-11-28T22:05:23.965Z,-0.20
2018-11-28T22:07:52.151Z,-0.20
2018-11-28T22:10:22.317Z,-0.20
2018-11-28T22:12:50.569Z,-0.20
2018-11-28T22:15:18.836Z,-0.20
2018-11-28T22:17:52.898Z,-0.20
2018-11-28T22:20:21.075Z,-0.20
2018-11-28T22:22:49.223Z,-0.20
2018-11-28T22:25:18.341Z,-0.20
2018-11-28T22:27:46.527Z,-0.20
2018-11-28T22:30:16.745Z,-0.20
2018-11-28T22:32:44.938Z,-0.20
2018-11-28T22:35:13.112Z,-0.10
2018-11-28T22:37:41.246Z,-0.20
2018-11-28T22:40:13.657Z,-0.20
2018-11-28T22:42:48.337Z,-0.20
2018-11-28T22:45:17.758Z,-0.20
2018-11-28T22:47:45.990Z,-0.20
2018-11-28T22:50:14.306Z,-0.20
2018-11-28T22:52:42.514Z,-0.10
2018-11-28T22:55:18.117Z,-0.20
2018-11-28T22:57:46.395Z,-0.20
2018-11-28T23:00:16.613Z,-0.10
2018-11-28T23:02:56.057Z,-0.10
2018-11-28T23:05:27.859Z,0.00
2018-11-28T23:07:56.914Z,-0.10
2018-11-28T23:10:25.108Z,-0.10
2018-11-28T23:12:53.360Z,-0.10
2018-11-28T23:15:21.684Z,0.00
2018-11-28T23:17:54.869Z,0.00
2018-11-28T23:20:18.065Z,0.00
2018-11-28T23:22:46.489Z,0.00
2018-11-28T23:25:14.642Z,0.00
2018-11-28T23:27:42.883Z,0.00
2018-11-28T23:30:17.027Z,0.10
2018-11-28T23:32:45.627Z,0.10
2018-11-28T23:35:13.803Z,0.10
2018-11-28T23:37:43.077Z,0.00
2018-11-28T23:40:13.466Z,0.00
2018-11-28T23:42:41.689Z,0.10
2018-11-28T23:45:10.923Z,0.10
2018-11-28T23:47:39.274Z,0.00
2018-11-28T23:50:15.119Z,0.00
2018-11-28T23:52:43.559Z,0.00
2018-11-28T23:55:16.095Z,0.00
2018-11-28T23:57:44.360Z,0.00
